Aérodrome :
LOGIN :

S'inscrire | Disclaimer

   EN    FR    IT 

 










Légende :    VFR   VFR Marginal   IFR   IFR Intensif   IFR Très Intensif
Visi : 
Plafond : 
>= 8 km
>= 3000ft
5 à 8 km
1000 à 3000 ft
1500m à 5 km
500 à 1000 ft
800 à 1500m
200 à 500 ft
< 800m
< 200 ft
Symboles :   Orages  Brouillard  Fortes neiges  Fortes précipitations  Vent > 20 kt
SIGMETs :   Divers  Orages  Givrage  Turbulence  Onde Orograph.  Cendres Volcan.






- Altitude de l'aérodrome : 46 ft
- Code IATA : SNN


EINN - Shannon

DERNIER METAR :
  • 131930Z 18002KT 9999 FEW030 08/06 Q1004 NOSIG

METARs EXPIRÉS :
  • 131900Z 18002KT 9999 FEW030 09/06 Q1003 NOSIG
  • 131830Z 23007KT 9999 FEW030 10/06 Q1003 NOSIG
  • 131800Z 23003KT 9999 FEW030 11/07 Q1003 NOSIG
  • 131730Z 25005KT 9999 FEW030 12/07 Q1002 NOSIG
  • 131700Z 25008KT 9999 FEW030 13/07 Q1002 NOSIG

TAF COR TAF EINN
Valide du 13 à 18h jusqu'au 14 à 18h UTC


131706Z 1318/1418 24007KT 9999 FEW018 SCT030
BECMG 1318/1320 16005KT
BECMG 1320/1322 11005KT
PROB40
TEMPO 1320/1401 3000 BR
BECMG 1400/1402 08010KT -RA
TEMPO 1402/1412 5000 -RA BKN012
BECMG 1404/1406 05013KT
PROB40
TEMPO 1404/1411 3000 RA BKN008
BECMG 1410/1412 13008KT
PROB40
TEMPO 1412/1416 5000 -SHRA BKN015 SCT020CB
BECMG 1413/1415 07008KT
BECMG 1415/1418 VRB03KT
PROB30
TEMPO 1416/1418 5000 -SHRA BR



MET'MAP, la Météo Aéronautique d'un coup d'oeil ! - Copyright ORBIFLY Décembre 2007 - Disclaimer

ORBIFLY MET'MAP TEAM :

Programmation & Développement : Alexandra Zaïnal
Conception & Développement : Baudouin d'Aumeries
Co-Programmation & Développement : Marc-Olivier Méhu
Soutien technique & logistique : Manuel Goepfert

Contact : metmap@orbifly.com




SOURCES & CREDITS :

   NOAA